sensor_id;sensor_type;location;lat;lon;timestamp;P1;durP1;ratioP1;P2;durP2;ratioP2
12910;SDS011;6523;49.758;6.120;2023-05-07T00:00:22;4.80;;;3.63;;
12910;SDS011;6523;49.758;6.120;2023-05-07T00:02:48;4.20;;;3.80;;
12910;SDS011;6523;49.758;6.120;2023-05-07T00:05:13;4.00;;;3.50;;
12910;SDS011;6523;49.758;6.120;2023-05-07T00:07:39;3.80;;;3.40;;
12910;SDS011;6523;49.758;6.120;2023-05-07T00:10:05;4.83;;;3.50;;
12910;SDS011;6523;49.758;6.120;2023-05-07T00:12:31;4.00;;;3.60;;
12910;SDS011;6523;49.758;6.120;2023-05-07T00:14:58;6.77;;;4.40;;
12910;SDS011;6523;49.758;6.120;2023-05-07T00:17:25;3.93;;;3.30;;
12910;SDS011;6523;49.758;6.120;2023-05-07T00:19:50;3.60;;;3.30;;
12910;SDS011;6523;49.758;6.120;2023-05-07T00:22:16;3.67;;;3.37;;
12910;SDS011;6523;49.758;6.120;2023-05-07T00:24:42;4.90;;;3.80;;
12910;SDS011;6523;49.758;6.120;2023-05-07T00:27:07;4.63;;;4.07;;
12910;SDS011;6523;49.758;6.120;2023-05-07T00:29:33;4.30;;;3.97;;
12910;SDS011;6523;49.758;6.120;2023-05-07T00:31:59;3.77;;;3.47;;
12910;SDS011;6523;49.758;6.120;2023-05-07T00:34:24;4.20;;;3.47;;
12910;SDS011;6523;49.758;6.120;2023-05-07T00:36:50;3.97;;;3.57;;
12910;SDS011;6523;49.758;6.120;2023-05-07T00:39:15;4.20;;;3.80;;
12910;SDS011;6523;49.758;6.120;2023-05-07T00:41:41;4.83;;;3.87;;
12910;SDS011;6523;49.758;6.120;2023-05-07T00:44:06;4.13;;;3.73;;
12910;SDS011;6523;49.758;6.120;2023-05-07T00:46:32;4.40;;;4.00;;
12910;SDS011;6523;49.758;6.120;2023-05-07T00:48:58;3.90;;;3.50;;
12910;SDS011;6523;49.758;6.120;2023-05-07T00:51:25;4.80;;;3.63;;
12910;SDS011;6523;49.758;6.120;2023-05-07T00:53:52;3.70;;;3.30;;
12910;SDS011;6523;49.758;6.120;2023-05-07T00:56:18;3.87;;;3.57;;
12910;SDS011;6523;49.758;6.120;2023-05-07T00:58:46;4.10;;;3.70;;
12910;SDS011;6523;49.758;6.120;2023-05-07T01:01:12;4.37;;;3.97;;
12910;SDS011;6523;49.758;6.120;2023-05-07T01:03:38;5.67;;;4.10;;
12910;SDS011;6523;49.758;6.120;2023-05-07T01:06:03;4.67;;;3.90;;
12910;SDS011;6523;49.758;6.120;2023-05-07T01:08:31;4.13;;;3.50;;
12910;SDS011;6523;49.758;6.120;2023-05-07T01:10:57;4.63;;;3.37;;
12910;SDS011;6523;49.758;6.120;2023-05-07T01:13:24;3.53;;;3.23;;
12910;SDS011;6523;49.758;6.120;2023-05-07T01:15:50;3.73;;;3.20;;
12910;SDS011;6523;49.758;6.120;2023-05-07T01:18:16;3.53;;;3.00;;
12910;SDS011;6523;49.758;6.120;2023-05-07T01:20:41;3.57;;;2.83;;
12910;SDS011;6523;49.758;6.120;2023-05-07T01:23:07;3.63;;;3.33;;
12910;SDS011;6523;49.758;6.120;2023-05-07T01:25:35;5.23;;;3.40;;
12910;SDS011;6523;49.758;6.120;2023-05-07T01:28:00;3.80;;;3.40;;
12910;SDS011;6523;49.758;6.120;2023-05-07T01:30:27;4.33;;;3.80;;
12910;SDS011;6523;49.758;6.120;2023-05-07T01:32:56;4.17;;;3.77;;
12910;SDS011;6523;49.758;6.120;2023-05-07T01:35:27;3.87;;;3.47;;
12910;SDS011;6523;49.758;6.120;2023-05-07T01:37:57;4.03;;;3.57;;
12910;SDS011;6523;49.758;6.120;2023-05-07T01:40:23;3.93;;;3.63;;
12910;SDS011;6523;49.758;6.120;2023-05-07T01:42:50;4.33;;;3.90;;
12910;SDS011;6523;49.758;6.120;2023-05-07T01:45:17;4.07;;;3.77;;
12910;SDS011;6523;49.758;6.120;2023-05-07T01:47:42;4.63;;;4.20;;
12910;SDS011;6523;49.758;6.120;2023-05-07T01:50:09;4.17;;;3.87;;
12910;SDS011;6523;49.758;6.120;2023-05-07T01:52:36;4.67;;;3.93;;
12910;SDS011;6523;49.758;6.120;2023-05-07T01:55:05;3.30;;;3.00;;
12910;SDS011;6523;49.758;6.120;2023-05-07T01:57:31;4.70;;;3.50;;
12910;SDS011;6523;49.758;6.120;2023-05-07T01:59:57;4.60;;;3.20;;
12910;SDS011;6523;49.758;6.120;2023-05-07T02:02:22;3.80;;;3.47;;
12910;SDS011;6523;49.758;6.120;2023-05-07T02:04:48;4.00;;;3.70;;
12910;SDS011;6523;49.758;6.120;2023-05-07T02:07:13;3.93;;;3.57;;
12910;SDS011;6523;49.758;6.120;2023-05-07T02:09:39;3.80;;;3.47;;
12910;SDS011;6523;49.758;6.120;2023-05-07T02:12:04;4.07;;;3.50;;
12910;SDS011;6523;49.758;6.120;2023-05-07T02:14:30;4.80;;;3.57;;
12910;SDS011;6523;49.758;6.120;2023-05-07T02:16:55;4.40;;;4.00;;
12910;SDS011;6523;49.758;6.120;2023-05-07T02:19:21;4.50;;;3.80;;
12910;SDS011;6523;49.758;6.120;2023-05-07T02:21:47;3.47;;;3.27;;
12910;SDS011;6523;49.758;6.120;2023-05-07T02:24:13;3.53;;;3.23;;
12910;SDS011;6523;49.758;6.120;2023-05-07T02:26:39;3.60;;;3.30;;
12910;SDS011;6523;49.758;6.120;2023-05-07T02:29:05;4.67;;;4.27;;
12910;SDS011;6523;49.758;6.120;2023-05-07T02:31:31;4.30;;;4.00;;
12910;SDS011;6523;49.758;6.120;2023-05-07T02:33:58;4.20;;;3.80;;
12910;SDS011;6523;49.758;6.120;2023-05-07T02:36:24;3.97;;;3.67;;
12910;SDS011;6523;49.758;6.120;2023-05-07T02:38:50;3.80;;;3.50;;
12910;SDS011;6523;49.758;6.120;2023-05-07T02:41:15;4.50;;;4.00;;
12910;SDS011;6523;49.758;6.120;2023-05-07T02:43:41;4.73;;;3.70;;
12910;SDS011;6523;49.758;6.120;2023-05-07T02:46:07;4.20;;;3.83;;
12910;SDS011;6523;49.758;6.120;2023-05-07T02:48:34;5.63;;;4.03;;
12910;SDS011;6523;49.758;6.120;2023-05-07T02:51:00;4.60;;;4.20;;
12910;SDS011;6523;49.758;6.120;2023-05-07T02:53:26;4.77;;;4.13;;
12910;SDS011;6523;49.758;6.120;2023-05-07T02:55:52;4.13;;;3.83;;
12910;SDS011;6523;49.758;6.120;2023-05-07T02:58:18;5.03;;;4.07;;
12910;SDS011;6523;49.758;6.120;2023-05-07T03:00:44;4.37;;;3.97;;
12910;SDS011;6523;49.758;6.120;2023-05-07T03:03:10;4.67;;;4.27;;
12910;SDS011;6523;49.758;6.120;2023-05-07T03:05:36;6.07;;;4.23;;
12910;SDS011;6523;49.758;6.120;2023-05-07T03:08:01;4.40;;;4.00;;
12910;SDS011;6523;49.758;6.120;2023-05-07T03:10:28;4.83;;;4.30;;
12910;SDS011;6523;49.758;6.120;2023-05-07T03:12:54;4.30;;;3.90;;
12910;SDS011;6523;49.758;6.120;2023-05-07T03:15:20;3.53;;;3.23;;
12910;SDS011;6523;49.758;6.120;2023-05-07T03:17:46;4.17;;;3.87;;
12910;SDS011;6523;49.758;6.120;2023-05-07T03:20:12;3.93;;;3.63;;
12910;SDS011;6523;49.758;6.120;2023-05-07T03:22:38;4.00;;;3.70;;
12910;SDS011;6523;49.758;6.120;2023-05-07T03:25:04;3.83;;;3.53;;
12910;SDS011;6523;49.758;6.120;2023-05-07T03:27:29;4.07;;;3.67;;
12910;SDS011;6523;49.758;6.120;2023-05-07T03:29:55;4.33;;;3.83;;
12910;SDS011;6523;49.758;6.120;2023-05-07T03:32:21;5.57;;;4.33;;
12910;SDS011;6523;49.758;6.120;2023-05-07T03:34:46;3.27;;;3.07;;
12910;SDS011;6523;49.758;6.120;2023-05-07T03:37:12;3.97;;;3.67;;
12910;SDS011;6523;49.758;6.120;2023-05-07T03:39:37;3.93;;;3.40;;
12910;SDS011;6523;49.758;6.120;2023-05-07T03:42:03;4.17;;;3.77;;
12910;SDS011;6523;49.758;6.120;2023-05-07T03:44:28;4.27;;;3.83;;
12910;SDS011;6523;49.758;6.120;2023-05-07T03:46:54;3.70;;;3.40;;
12910;SDS011;6523;49.758;6.120;2023-05-07T03:49:20;3.93;;;3.63;;
12910;SDS011;6523;49.758;6.120;2023-05-07T03:51:46;4.63;;;4.20;;
12910;SDS011;6523;49.758;6.120;2023-05-07T03:54:11;4.37;;;4.03;;
12910;SDS011;6523;49.758;6.120;2023-05-07T03:56:37;4.60;;;4.20;;
12910;SDS011;6523;49.758;6.120;2023-05-07T03:59:02;4.77;;;4.37;;
12910;SDS011;6523;49.758;6.120;2023-05-07T04:01:28;4.33;;;3.93;;
12910;SDS011;6523;49.758;6.120;2023-05-07T04:03:54;4.10;;;3.80;;
12910;SDS011;6523;49.758;6.120;2023-05-07T04:06:19;4.80;;;4.40;;
12910;SDS011;6523;49.758;6.120;2023-05-07T04:08:45;4.43;;;4.03;;
12910;SDS011;6523;49.758;6.120;2023-05-07T04:11:11;4.53;;;4.13;;
12910;SDS011;6523;49.758;6.120;2023-05-07T04:13:36;5.00;;;4.60;;
12910;SDS011;6523;49.758;6.120;2023-05-07T04:16:02;5.43;;;4.93;;
12910;SDS011;6523;49.758;6.120;2023-05-07T04:18:28;4.73;;;4.33;;
12910;SDS011;6523;49.758;6.120;2023-05-07T04:20:54;6.00;;;5.27;;
12910;SDS011;6523;49.758;6.120;2023-05-07T04:23:20;4.80;;;4.40;;
12910;SDS011;6523;49.758;6.120;2023-05-07T04:25:45;5.23;;;4.73;;
12910;SDS011;6523;49.758;6.120;2023-05-07T04:28:11;6.40;;;5.00;;
12910;SDS011;6523;49.758;6.120;2023-05-07T04:30:37;5.40;;;4.93;;
12910;SDS011;6523;49.758;6.120;2023-05-07T04:33:03;4.63;;;4.23;;
12910;SDS011;6523;49.758;6.120;2023-05-07T04:35:29;4.30;;;4.00;;
12910;SDS011;6523;49.758;6.120;2023-05-07T04:37:54;6.23;;;5.63;;
12910;SDS011;6523;49.758;6.120;2023-05-07T04:40:20;5.30;;;4.80;;
12910;SDS011;6523;49.758;6.120;2023-05-07T04:42:45;5.77;;;4.23;;
12910;SDS011;6523;49.758;6.120;2023-05-07T04:45:11;5.17;;;4.70;;
12910;SDS011;6523;49.758;6.120;2023-05-07T04:47:37;4.93;;;4.37;;
12910;SDS011;6523;49.758;6.120;2023-05-07T04:50:03;4.97;;;4.57;;
12910;SDS011;6523;49.758;6.120;2023-05-07T04:52:29;4.57;;;4.27;;
12910;SDS011;6523;49.758;6.120;2023-05-07T04:54:56;5.30;;;4.90;;
12910;SDS011;6523;49.758;6.120;2023-05-07T04:57:21;5.27;;;4.87;;
12910;SDS011;6523;49.758;6.120;2023-05-07T04:59:47;5.53;;;4.27;;
12910;SDS011;6523;49.758;6.120;2023-05-07T05:02:12;5.57;;;5.17;;
12910;SDS011;6523;49.758;6.120;2023-05-07T05:04:38;7.97;;;5.50;;
12910;SDS011;6523;49.758;6.120;2023-05-07T05:07:03;5.10;;;4.70;;
12910;SDS011;6523;49.758;6.120;2023-05-07T05:09:29;4.97;;;4.57;;
12910;SDS011;6523;49.758;6.120;2023-05-07T05:11:55;5.63;;;5.10;;
12910;SDS011;6523;49.758;6.120;2023-05-07T05:14:20;5.33;;;4.90;;
12910;SDS011;6523;49.758;6.120;2023-05-07T05:16:46;7.43;;;6.60;;
12910;SDS011;6523;49.758;6.120;2023-05-07T05:19:12;7.50;;;6.80;;
12910;SDS011;6523;49.758;6.120;2023-05-07T05:21:37;35.03;;;9.47;;
12910;SDS011;6523;49.758;6.120;2023-05-07T05:24:03;20.30;;;8.07;;
12910;SDS011;6523;49.758;6.120;2023-05-07T05:26:28;162.70;;;17.57;;
12910;SDS011;6523;49.758;6.120;2023-05-07T05:28:54;60.00;;;11.20;;
12910;SDS011;6523;49.758;6.120;2023-05-07T05:31:19;20.40;;;9.07;;
12910;SDS011;6523;49.758;6.120;2023-05-07T05:33:46;10.03;;;8.23;;
12910;SDS011;6523;49.758;6.120;2023-05-07T05:36:11;7.80;;;7.10;;
12910;SDS011;6523;49.758;6.120;2023-05-07T05:38:38;7.97;;;7.17;;
12910;SDS011;6523;49.758;6.120;2023-05-07T05:41:04;7.73;;;6.90;;
12910;SDS011;6523;49.758;6.120;2023-05-07T05:43:29;7.40;;;6.70;;
12910;SDS011;6523;49.758;6.120;2023-05-07T05:45:55;6.63;;;5.97;;
12910;SDS011;6523;49.758;6.120;2023-05-07T05:48:21;7.33;;;6.27;;
12910;SDS011;6523;49.758;6.120;2023-05-07T05:50:47;7.17;;;6.47;;
12910;SDS011;6523;49.758;6.120;2023-05-07T05:53:13;6.53;;;5.93;;
12910;SDS011;6523;49.758;6.120;2023-05-07T05:55:38;7.30;;;6.60;;
12910;SDS011;6523;49.758;6.120;2023-05-07T05:58:04;7.40;;;6.70;;
12910;SDS011;6523;49.758;6.120;2023-05-07T06:00:30;9.03;;;7.07;;
12910;SDS011;6523;49.758;6.120;2023-05-07T06:02:55;9.20;;;7.53;;
12910;SDS011;6523;49.758;6.120;2023-05-07T06:05:21;8.33;;;7.20;;
12910;SDS011;6523;49.758;6.120;2023-05-07T06:07:47;8.17;;;7.37;;
12910;SDS011;6523;49.758;6.120;2023-05-07T06:10:12;7.63;;;7.00;;
12910;SDS011;6523;49.758;6.120;2023-05-07T06:12:38;8.37;;;7.57;;
12910;SDS011;6523;49.758;6.120;2023-05-07T06:15:03;6.90;;;6.27;;
12910;SDS011;6523;49.758;6.120;2023-05-07T06:17:29;6.70;;;5.73;;
12910;SDS011;6523;49.758;6.120;2023-05-07T06:19:55;6.97;;;6.37;;
12910;SDS011;6523;49.758;6.120;2023-05-07T06:22:21;6.30;;;5.80;;
12910;SDS011;6523;49.758;6.120;2023-05-07T06:24:46;6.20;;;5.70;;
12910;SDS011;6523;49.758;6.120;2023-05-07T06:27:12;6.73;;;6.17;;
12910;SDS011;6523;49.758;6.120;2023-05-07T06:29:37;6.63;;;6.10;;
12910;SDS011;6523;49.758;6.120;2023-05-07T06:32:07;6.80;;;6.20;;
12910;SDS011;6523;49.758;6.120;2023-05-07T06:34:36;6.03;;;5.53;;
12910;SDS011;6523;49.758;6.120;2023-05-07T06:37:02;6.20;;;5.60;;
12910;SDS011;6523;49.758;6.120;2023-05-07T06:39:27;6.93;;;5.77;;
12910;SDS011;6523;49.758;6.120;2023-05-07T06:41:53;6.33;;;5.80;;
12910;SDS011;6523;49.758;6.120;2023-05-07T06:44:19;6.87;;;6.27;;
12910;SDS011;6523;49.758;6.120;2023-05-07T06:46:45;6.17;;;5.67;;
12910;SDS011;6523;49.758;6.120;2023-05-07T06:49:10;6.07;;;5.53;;
12910;SDS011;6523;49.758;6.120;2023-05-07T06:51:39;6.13;;;5.57;;
12910;SDS011;6523;49.758;6.120;2023-05-07T06:54:05;6.30;;;5.80;;
12910;SDS011;6523;49.758;6.120;2023-05-07T06:56:31;6.50;;;5.90;;
12910;SDS011;6523;49.758;6.120;2023-05-07T06:58:57;7.20;;;6.23;;
12910;SDS011;6523;49.758;6.120;2023-05-07T07:01:22;6.90;;;6.33;;
12910;SDS011;6523;49.758;6.120;2023-05-07T07:03:48;6.50;;;5.90;;
12910;SDS011;6523;49.758;6.120;2023-05-07T07:06:13;6.07;;;5.57;;
12910;SDS011;6523;49.758;6.120;2023-05-07T07:08:39;6.40;;;5.90;;
12910;SDS011;6523;49.758;6.120;2023-05-07T07:11:05;6.30;;;5.80;;
12910;SDS011;6523;49.758;6.120;2023-05-07T07:13:31;5.23;;;4.83;;
12910;SDS011;6523;49.758;6.120;2023-05-07T07:15:57;5.53;;;4.97;;
12910;SDS011;6523;49.758;6.120;2023-05-07T07:18:22;6.17;;;5.67;;
12910;SDS011;6523;49.758;6.120;2023-05-07T07:20:48;7.80;;;6.30;;
12910;SDS011;6523;49.758;6.120;2023-05-07T07:23:14;6.40;;;5.90;;
12910;SDS011;6523;49.758;6.120;2023-05-07T07:25:39;6.40;;;5.90;;
12910;SDS011;6523;49.758;6.120;2023-05-07T07:28:05;5.40;;;5.00;;
12910;SDS011;6523;49.758;6.120;2023-05-07T07:30:31;4.90;;;4.50;;
12910;SDS011;6523;49.758;6.120;2023-05-07T07:32:57;5.30;;;4.80;;
12910;SDS011;6523;49.758;6.120;2023-05-07T07:35:28;5.87;;;5.37;;
12910;SDS011;6523;49.758;6.120;2023-05-07T07:37:54;5.77;;;5.27;;
12910;SDS011;6523;49.758;6.120;2023-05-07T07:40:20;6.00;;;5.43;;
12910;SDS011;6523;49.758;6.120;2023-05-07T07:42:45;5.43;;;4.93;;
12910;SDS011;6523;49.758;6.120;2023-05-07T07:45:11;5.10;;;4.63;;
12910;SDS011;6523;49.758;6.120;2023-05-07T07:47:37;5.03;;;4.57;;
12910;SDS011;6523;49.758;6.120;2023-05-07T07:50:03;5.07;;;4.57;;
12910;SDS011;6523;49.758;6.120;2023-05-07T07:52:29;5.17;;;4.13;;
12910;SDS011;6523;49.758;6.120;2023-05-07T07:54:55;4.83;;;4.43;;
12910;SDS011;6523;49.758;6.120;2023-05-07T07:57:20;4.70;;;4.30;;
12910;SDS011;6523;49.758;6.120;2023-05-07T07:59:46;4.53;;;4.13;;
12910;SDS011;6523;49.758;6.120;2023-05-07T08:02:11;4.90;;;4.50;;
12910;SDS011;6523;49.758;6.120;2023-05-07T08:04:37;4.70;;;4.33;;
12910;SDS011;6523;49.758;6.120;2023-05-07T08:07:03;4.47;;;4.10;;
12910;SDS011;6523;49.758;6.120;2023-05-07T08:09:29;4.43;;;4.03;;
12910;SDS011;6523;49.758;6.120;2023-05-07T08:11:54;4.63;;;4.13;;
12910;SDS011;6523;49.758;6.120;2023-05-07T08:14:20;4.67;;;4.27;;
12910;SDS011;6523;49.758;6.120;2023-05-07T08:16:45;3.97;;;3.67;;
12910;SDS011;6523;49.758;6.120;2023-05-07T08:19:11;4.30;;;3.50;;
12910;SDS011;6523;49.758;6.120;2023-05-07T08:21:39;4.13;;;3.67;;
12910;SDS011;6523;49.758;6.120;2023-05-07T08:24:05;4.10;;;3.70;;
12910;SDS011;6523;49.758;6.120;2023-05-07T08:26:31;3.87;;;3.57;;
12910;SDS011;6523;49.758;6.120;2023-05-07T08:28:56;4.70;;;3.50;;
12910;SDS011;6523;49.758;6.120;2023-05-07T08:31:22;5.30;;;3.67;;
12910;SDS011;6523;49.758;6.120;2023-05-07T08:33:48;5.13;;;3.80;;
12910;SDS011;6523;49.758;6.120;2023-05-07T08:36:13;4.27;;;3.87;;
12910;SDS011;6523;49.758;6.120;2023-05-07T08:38:39;4.07;;;3.60;;
12910;SDS011;6523;49.758;6.120;2023-05-07T08:41:09;4.43;;;3.93;;
12910;SDS011;6523;49.758;6.120;2023-05-07T08:43:35;3.50;;;3.23;;
12910;SDS011;6523;49.758;6.120;2023-05-07T08:46:02;4.97;;;3.77;;
12910;SDS011;6523;49.758;6.120;2023-05-07T08:48:29;4.17;;;3.27;;
12910;SDS011;6523;49.758;6.120;2023-05-07T08:50:57;3.87;;;3.47;;
12910;SDS011;6523;49.758;6.120;2023-05-07T08:53:24;3.70;;;3.30;;
12910;SDS011;6523;49.758;6.120;2023-05-07T08:55:50;3.57;;;3.27;;
12910;SDS011;6523;49.758;6.120;2023-05-07T08:58:17;3.13;;;2.93;;
12910;SDS011;6523;49.758;6.120;2023-05-07T09:00:43;3.87;;;3.57;;
12910;SDS011;6523;49.758;6.120;2023-05-07T09:03:08;3.77;;;3.03;;
12910;SDS011;6523;49.758;6.120;2023-05-07T09:05:37;3.93;;;2.83;;
12910;SDS011;6523;49.758;6.120;2023-05-07T09:08:04;3.63;;;3.30;;
12910;SDS011;6523;49.758;6.120;2023-05-07T09:10:33;3.73;;;3.33;;
12910;SDS011;6523;49.758;6.120;2023-05-07T09:12:58;2.93;;;2.70;;
12910;SDS011;6523;49.758;6.120;2023-05-07T09:15:25;3.80;;;3.30;;
12910;SDS011;6523;49.758;6.120;2023-05-07T09:17:51;4.20;;;3.27;;
12910;SDS011;6523;49.758;6.120;2023-05-07T09:20:17;3.03;;;2.30;;
12910;SDS011;6523;49.758;6.120;2023-05-07T09:22:43;2.80;;;2.53;;
12910;SDS011;6523;49.758;6.120;2023-05-07T09:25:09;2.70;;;2.50;;
12910;SDS011;6523;49.758;6.120;2023-05-07T09:27:35;2.53;;;2.33;;
12910;SDS011;6523;49.758;6.120;2023-05-07T09:30:04;2.77;;;2.57;;
12910;SDS011;6523;49.758;6.120;2023-05-07T09:32:34;3.10;;;2.60;;
12910;SDS011;6523;49.758;6.120;2023-05-07T09:35:01;2.77;;;2.13;;
12910;SDS011;6523;49.758;6.120;2023-05-07T09:37:27;5.00;;;2.60;;
12910;SDS011;6523;49.758;6.120;2023-05-07T09:39:53;2.77;;;2.43;;
12910;SDS011;6523;49.758;6.120;2023-05-07T09:42:23;2.43;;;2.20;;
12910;SDS011;6523;49.758;6.120;2023-05-07T09:44:49;2.63;;;2.43;;
12910;SDS011;6523;49.758;6.120;2023-05-07T09:47:18;2.67;;;2.47;;
12910;SDS011;6523;49.758;6.120;2023-05-07T09:49:46;2.40;;;2.20;;
12910;SDS011;6523;49.758;6.120;2023-05-07T09:52:13;2.90;;;2.40;;
12910;SDS011;6523;49.758;6.120;2023-05-07T09:54:39;2.50;;;2.30;;
12910;SDS011;6523;49.758;6.120;2023-05-07T09:57:09;4.87;;;3.80;;
12910;SDS011;6523;49.758;6.120;2023-05-07T09:59:37;3.23;;;2.83;;
12910;SDS011;6523;49.758;6.120;2023-05-07T10:02:03;2.60;;;2.30;;
12910;SDS011;6523;49.758;6.120;2023-05-07T10:04:30;2.93;;;2.63;;
12910;SDS011;6523;49.758;6.120;2023-05-07T10:06:57;2.40;;;2.20;;
12910;SDS011;6523;49.758;6.120;2023-05-07T10:09:25;2.70;;;2.47;;
12910;SDS011;6523;49.758;6.120;2023-05-07T10:11:51;2.70;;;2.50;;
12910;SDS011;6523;49.758;6.120;2023-05-07T10:14:17;2.50;;;2.30;;
12910;SDS011;6523;49.758;6.120;2023-05-07T10:16:45;2.43;;;2.23;;
12910;SDS011;6523;49.758;6.120;2023-05-07T10:19:13;1.97;;;1.87;;
12910;SDS011;6523;49.758;6.120;2023-05-07T10:21:41;3.53;;;3.10;;
12910;SDS011;6523;49.758;6.120;2023-05-07T10:24:10;3.00;;;2.40;;
12910;SDS011;6523;49.758;6.120;2023-05-07T10:26:42;3.97;;;2.13;;
12910;SDS011;6523;49.758;6.120;2023-05-07T10:32:06;3.00;;;2.20;;
12910;SDS011;6523;49.758;6.120;2023-05-07T10:34:53;4.17;;;2.60;;
12910;SDS011;6523;49.758;6.120;2023-05-07T10:37:21;3.20;;;1.87;;
12910;SDS011;6523;49.758;6.120;2023-05-07T10:39:48;2.00;;;1.87;;
12910;SDS011;6523;49.758;6.120;2023-05-07T10:42:14;2.23;;;2.00;;
12910;SDS011;6523;49.758;6.120;2023-05-07T10:44:40;1.80;;;1.70;;
12910;SDS011;6523;49.758;6.120;2023-05-07T10:47:06;2.13;;;1.30;;
12910;SDS011;6523;49.758;6.120;2023-05-07T10:49:34;3.33;;;1.70;;
12910;SDS011;6523;49.758;6.120;2023-05-07T10:52:15;2.10;;;1.80;;
12910;SDS011;6523;49.758;6.120;2023-05-07T10:54:43;2.10;;;1.53;;
12910;SDS011;6523;49.758;6.120;2023-05-07T10:59:57;2.33;;;2.13;;
12910;SDS011;6523;49.758;6.120;2023-05-07T11:02:23;2.17;;;1.40;;
12910;SDS011;6523;49.758;6.120;2023-05-07T11:07:56;5.23;;;3.50;;
12910;SDS011;6523;49.758;6.120;2023-05-07T11:13:40;1.97;;;1.80;;
12910;SDS011;6523;49.758;6.120;2023-05-07T11:16:20;2.00;;;1.80;;
12910;SDS011;6523;49.758;6.120;2023-05-07T11:18:48;2.67;;;2.27;;
12910;SDS011;6523;49.758;6.120;2023-05-07T11:21:34;1.90;;;1.70;;
12910;SDS011;6523;49.758;6.120;2023-05-07T11:24:05;1.93;;;1.83;;
12910;SDS011;6523;49.758;6.120;2023-05-07T11:29:11;1.93;;;1.83;;
12910;SDS011;6523;49.758;6.120;2023-05-07T11:31:38;2.53;;;1.57;;
12910;SDS011;6523;49.758;6.120;2023-05-07T11:34:03;2.87;;;2.50;;
12910;SDS011;6523;49.758;6.120;2023-05-07T11:36:31;2.67;;;1.60;;
12910;SDS011;6523;49.758;6.120;2023-05-07T11:38:57;3.20;;;1.77;;
12910;SDS011;6523;49.758;6.120;2023-05-07T11:41:23;2.20;;;1.90;;
12910;SDS011;6523;49.758;6.120;2023-05-07T11:43:59;2.73;;;1.70;;
12910;SDS011;6523;49.758;6.120;2023-05-07T11:46:26;4.20;;;2.57;;
12910;SDS011;6523;49.758;6.120;2023-05-07T11:48:52;2.53;;;2.33;;
12910;SDS011;6523;49.758;6.120;2023-05-07T11:51:18;2.87;;;1.80;;
12910;SDS011;6523;49.758;6.120;2023-05-07T11:53:45;2.13;;;1.93;;
12910;SDS011;6523;49.758;6.120;2023-05-07T11:56:12;2.53;;;2.03;;
12910;SDS011;6523;49.758;6.120;2023-05-07T11:58:39;2.40;;;1.90;;
12910;SDS011;6523;49.758;6.120;2023-05-07T12:01:07;2.30;;;2.10;;
12910;SDS011;6523;49.758;6.120;2023-05-07T12:03:34;1.90;;;1.70;;
12910;SDS011;6523;49.758;6.120;2023-05-07T12:06:01;2.00;;;1.90;;
12910;SDS011;6523;49.758;6.120;2023-05-07T12:08:27;2.20;;;1.57;;
12910;SDS011;6523;49.758;6.120;2023-05-07T12:10:53;2.30;;;1.60;;
12910;SDS011;6523;49.758;6.120;2023-05-07T12:13:20;1.93;;;1.50;;
12910;SDS011;6523;49.758;6.120;2023-05-07T12:15:54;2.73;;;1.77;;
12910;SDS011;6523;49.758;6.120;2023-05-07T12:18:21;2.43;;;2.00;;
12910;SDS011;6523;49.758;6.120;2023-05-07T12:20:48;2.07;;;1.87;;
12910;SDS011;6523;49.758;6.120;2023-05-07T12:23:14;1.57;;;1.47;;
12910;SDS011;6523;49.758;6.120;2023-05-07T12:25:41;1.93;;;1.83;;
12910;SDS011;6523;49.758;6.120;2023-05-07T12:28:15;1.80;;;1.70;;
12910;SDS011;6523;49.758;6.120;2023-05-07T12:30:41;2.87;;;1.60;;
12910;SDS011;6523;49.758;6.120;2023-05-07T12:33:08;3.23;;;1.80;;
12910;SDS011;6523;49.758;6.120;2023-05-07T12:35:41;2.17;;;1.97;;
12910;SDS011;6523;49.758;6.120;2023-05-07T12:38:08;2.50;;;1.57;;
12910;SDS011;6523;49.758;6.120;2023-05-07T12:40:42;1.83;;;1.73;;
12910;SDS011;6523;49.758;6.120;2023-05-07T12:43:18;2.57;;;1.87;;
12910;SDS011;6523;49.758;6.120;2023-05-07T12:45:49;3.17;;;2.30;;
12910;SDS011;6523;49.758;6.120;2023-05-07T12:48:15;2.67;;;1.90;;
12910;SDS011;6523;49.758;6.120;2023-05-07T12:50:41;2.40;;;2.20;;
12910;SDS011;6523;49.758;6.120;2023-05-07T12:53:08;2.23;;;1.90;;
12910;SDS011;6523;49.758;6.120;2023-05-07T12:55:42;2.17;;;2.00;;
12910;SDS011;6523;49.758;6.120;2023-05-07T12:58:14;2.87;;;2.10;;
12910;SDS011;6523;49.758;6.120;2023-05-07T13:00:41;2.43;;;2.23;;
12910;SDS011;6523;49.758;6.120;2023-05-07T13:03:08;2.73;;;2.10;;
12910;SDS011;6523;49.758;6.120;2023-05-07T13:05:34;2.33;;;2.03;;
12910;SDS011;6523;49.758;6.120;2023-05-07T13:08:00;1.80;;;1.63;;
12910;SDS011;6523;49.758;6.120;2023-05-07T13:10:26;1.70;;;1.37;;
12910;SDS011;6523;49.758;6.120;2023-05-07T13:12:52;2.30;;;1.97;;
12910;SDS011;6523;49.758;6.120;2023-05-07T13:15:18;2.27;;;1.77;;
12910;SDS011;6523;49.758;6.120;2023-05-07T13:17:44;1.80;;;1.67;;
12910;SDS011;6523;49.758;6.120;2023-05-07T13:20:10;2.70;;;1.60;;
12910;SDS011;6523;49.758;6.120;2023-05-07T13:22:36;1.87;;;1.60;;
12910;SDS011;6523;49.758;6.120;2023-05-07T13:25:02;2.23;;;1.90;;
12910;SDS011;6523;49.758;6.120;2023-05-07T13:27:27;2.13;;;1.57;;
12910;SDS011;6523;49.758;6.120;2023-05-07T13:29:55;2.10;;;1.90;;
12910;SDS011;6523;49.758;6.120;2023-05-07T13:32:21;1.93;;;1.80;;
12910;SDS011;6523;49.758;6.120;2023-05-07T13:34:46;2.00;;;1.70;;
12910;SDS011;6523;49.758;6.120;2023-05-07T13:37:12;1.93;;;1.73;;
12910;SDS011;6523;49.758;6.120;2023-05-07T13:39:37;2.73;;;1.83;;
12910;SDS011;6523;49.758;6.120;2023-05-07T13:42:03;1.80;;;1.67;;
12910;SDS011;6523;49.758;6.120;2023-05-07T13:44:29;1.93;;;1.83;;
12910;SDS011;6523;49.758;6.120;2023-05-07T13:46:54;1.60;;;1.50;;
12910;SDS011;6523;49.758;6.120;2023-05-07T13:49:20;2.33;;;1.50;;
12910;SDS011;6523;49.758;6.120;2023-05-07T13:51:46;1.97;;;1.73;;
12910;SDS011;6523;49.758;6.120;2023-05-07T13:54:11;3.03;;;2.00;;
12910;SDS011;6523;49.758;6.120;2023-05-07T13:56:37;2.37;;;1.83;;
12910;SDS011;6523;49.758;6.120;2023-05-07T13:59:02;3.10;;;2.00;;
12910;SDS011;6523;49.758;6.120;2023-05-07T14:01:28;4.20;;;1.90;;
12910;SDS011;6523;49.758;6.120;2023-05-07T14:03:53;3.33;;;2.30;;
12910;SDS011;6523;49.758;6.120;2023-05-07T14:06:20;2.53;;;2.20;;
12910;SDS011;6523;49.758;6.120;2023-05-07T14:08:46;2.23;;;2.03;;
12910;SDS011;6523;49.758;6.120;2023-05-07T14:11:12;2.40;;;2.20;;
12910;SDS011;6523;49.758;6.120;2023-05-07T14:13:37;1.90;;;1.80;;
12910;SDS011;6523;49.758;6.120;2023-05-07T14:16:03;3.27;;;2.73;;
12910;SDS011;6523;49.758;6.120;2023-05-07T14:18:29;2.40;;;2.20;;
12910;SDS011;6523;49.758;6.120;2023-05-07T14:20:55;2.23;;;2.03;;
12910;SDS011;6523;49.758;6.120;2023-05-07T14:23:20;2.63;;;2.37;;
12910;SDS011;6523;49.758;6.120;2023-05-07T14:25:51;4.10;;;2.20;;
12910;SDS011;6523;49.758;6.120;2023-05-07T14:28:17;4.20;;;2.30;;
12910;SDS011;6523;49.758;6.120;2023-05-07T14:30:43;4.10;;;2.20;;
12910;SDS011;6523;49.758;6.120;2023-05-07T14:33:08;2.83;;;2.10;;
12910;SDS011;6523;49.758;6.120;2023-05-07T14:35:34;2.07;;;1.97;;
12910;SDS011;6523;49.758;6.120;2023-05-07T14:38:00;3.20;;;2.40;;
12910;SDS011;6523;49.758;6.120;2023-05-07T14:40:25;4.33;;;2.60;;
12910;SDS011;6523;49.758;6.120;2023-05-07T14:42:51;2.37;;;2.17;;
12910;SDS011;6523;49.758;6.120;2023-05-07T14:45:16;2.43;;;2.23;;
12910;SDS011;6523;49.758;6.120;2023-05-07T14:47:42;2.43;;;2.23;;
12910;SDS011;6523;49.758;6.120;2023-05-07T14:50:08;2.83;;;2.50;;
12910;SDS011;6523;49.758;6.120;2023-05-07T14:52:33;2.90;;;2.37;;
12910;SDS011;6523;49.758;6.120;2023-05-07T14:54:59;4.10;;;2.40;;
12910;SDS011;6523;49.758;6.120;2023-05-07T14:57:25;2.80;;;2.60;;
12910;SDS011;6523;49.758;6.120;2023-05-07T14:59:50;3.40;;;2.20;;
12910;SDS011;6523;49.758;6.120;2023-05-07T15:02:16;3.17;;;2.33;;
12910;SDS011;6523;49.758;6.120;2023-05-07T15:04:42;3.20;;;2.90;;
12910;SDS011;6523;49.758;6.120;2023-05-07T15:07:14;3.17;;;2.50;;
12910;SDS011;6523;49.758;6.120;2023-05-07T15:09:40;2.93;;;2.30;;